Time;durP1;ratioP1;P1;durP2;ratioP2;P2;SDS_P1;SDS_P2;PMS_P1;PMS_P2;Temp;Humidity;BMP_temperature;BMP_pressure;BME280_temperature;BME280_humidity;BME280_pressure;Samples;Min_cycle;Max_cycle;Signal;HPM_P1;HPM_P2
2022/04/24 00:02:17;;;;;;;4.20;3.28;;;;;;;8.55;85.81;99607.34;6012044;29;20053;-95
2022/04/24 00:05:20;;;;;;;3.83;3.45;;;;;;;8.53;84.25;99604.06;6004717;29;20221;-95
2022/04/24 00:08:22;;;;;;;6.38;3.45;;;;;;;8.50;84.35;99609.50;5992027;29;20045;-95
2022/04/24 00:11:24;;;;;;;5.38;2.90;;;;;;;8.41;84.46;99603.34;6007366;29;20049;-95
2022/04/24 00:14:26;;;;;;;7.00;3.50;;;;;;;8.41;83.88;99599.00;6010621;29;20079;-95
2022/04/24 00:17:28;;;;;;;4.10;3.10;;;;;;;8.35;85.71;99604.66;6010803;29;20056;-95
2022/04/24 00:20:30;;;;;;;4.50;3.13;;;;;;;8.29;87.75;99597.41;6013713;29;20052;-95
2022/04/24 00:23:32;;;;;;;5.93;3.70;;;;;;;8.24;88.21;99593.59;6018155;29;20037;-95
2022/04/24 00:26:34;;;;;;;7.13;3.75;;;;;;;8.14;88.96;99598.72;6018492;29;20049;-96
2022/04/24 00:29:37;;;;;;;4.45;3.47;;;;;;;8.16;87.54;99586.53;6007241;29;20061;-96
2022/04/24 00:32:39;;;;;;;5.28;3.80;;;;;;;8.17;88.63;99595.88;6022649;29;20053;-95
2022/04/24 00:35:41;;;;;;;3.70;3.30;;;;;;;8.06;90.02;99588.22;6021886;29;20632;-96
2022/04/24 00:38:43;;;;;;;6.70;3.67;;;;;;;8.03;92.48;99588.50;6024254;29;20045;-93
2022/04/24 00:41:46;;;;;;;6.80;3.58;;;;;;;7.95;92.10;99589.13;6008559;29;20049;-96
2022/04/24 00:44:48;;;;;;;3.47;3.15;;;;;;;7.87;93.15;99583.78;6018070;29;20520;-96
2022/04/24 00:48:09;;;;;;;4.15;3.10;;;;;;;7.80;94.06;99586.06;6018871;29;20058;-96
2022/04/24 00:51:26;;;;;;;6.70;3.03;;;;;;;7.81;94.70;99590.28;6016811;29;20045;-96
2022/04/24 00:54:28;;;;;;;4.53;3.25;;;;;;;7.76;93.92;99577.75;6017316;29;20037;-96
2022/04/24 00:57:30;;;;;;;3.92;3.40;;;;;;;7.76;93.50;99574.38;6006463;29;20040;-96
2022/04/24 01:00:31;;;;;;;6.13;3.40;;;;;;;7.68;94.49;99575.00;6004234;29;20049;-95
2022/04/24 01:03:33;;;;;;;8.27;3.28;;;;;;;7.69;94.82;99563.75;6018486;29;20133;-94
2022/04/24 01:06:43;;;;;;;4.28;3.55;;;;;;;7.73;94.36;99567.72;6022372;29;20046;-96
2022/04/24 01:09:45;;;;;;;4.55;3.58;;;;;;;7.68;93.69;99566.47;6014958;29;20569;-96
2022/04/24 01:12:47;;;;;;;4.80;3.17;;;;;;;7.63;96.19;99566.03;6014225;29;20133;-96
2022/04/24 01:15:48;;;;;;;5.30;3.53;;;;;;;7.58;95.55;99565.56;6019736;29;20152;-96
2022/04/24 01:18:51;;;;;;;6.90;4.15;;;;;;;7.55;97.01;99567.47;6005488;29;20057;-96
2022/04/24 01:21:54;;;;;;;7.40;3.40;;;;;;;7.50;96.74;99558.47;6014347;29;20076;-96
2022/04/24 01:24:56;;;;;;;4.15;3.58;;;;;;;7.58;95.15;99558.69;6014709;29;20559;-96
2022/04/24 01:27:58;;;;;;;3.95;3.17;;;;;;;7.55;93.46;99567.47;6021061;29;20124;-96
2022/04/24 01:31:00;;;;;;;4.15;3.17;;;;;;;7.51;94.65;99555.78;6007770;29;20045;-96
2022/04/24 01:34:02;;;;;;;4.22;3.17;;;;;;;7.43;98.37;99562.50;6007754;29;20050;-95
2022/04/24 01:37:04;;;;;;;3.75;3.33;;;;;;;7.40;96.33;99558.41;6002009;29;20584;-95
2022/04/24 01:40:07;;;;;;;5.32;3.75;;;;;;;7.30;97.71;99555.78;6018839;29;20046;-96
2022/04/24 01:43:08;;;;;;;8.50;4.70;;;;;;;7.37;95.79;99553.50;6015651;29;20552;-95
2022/04/24 01:46:11;;;;;;;5.20;3.40;;;;;;;7.30;95.02;99548.06;6017020;29;20056;-96
2022/04/24 01:49:13;;;;;;;9.13;4.07;;;;;;;7.29;95.09;99543.03;6006695;29;20048;-96
2022/04/24 01:52:15;;;;;;;5.25;3.47;;;;;;;7.27;95.50;99550.06;6013199;29;20320;-96
2022/04/24 01:55:18;;;;;;;4.63;3.40;;;;;;;7.19;97.23;99557.59;6014555;29;20074;-96
2022/04/24 01:58:26;;;;;;;4.68;3.83;;;;;;;7.14;97.73;99562.28;5986609;29;21058;-96
2022/04/24 02:01:28;;;;;;;4.75;4.00;;;;;;;7.19;97.47;99563.53;6006154;29;20050;-96
2022/04/24 02:04:30;;;;;;;3.78;3.40;;;;;;;7.09;98.46;99565.22;6008165;29;20060;-96
2022/04/24 02:07:32;;;;;;;5.50;3.90;;;;;;;6.96;98.19;99559.44;6022900;29;20518;-96
2022/04/24 02:10:34;;;;;;;5.07;3.88;;;;;;;6.94;99.81;99566.44;6017299;29;20041;-96
2022/04/24 02:13:36;;;;;;;4.78;3.45;;;;;;;6.90;100.00;99560.72;6007318;29;20120;-96
2022/04/24 02:16:38;;;;;;;5.35;3.50;;;;;;;6.85;100.00;99562.84;6023994;29;20049;-95
2022/04/24 02:19:39;;;;;;;5.32;3.55;;;;;;;6.89;100.00;99559.09;6022840;29;20052;-95
2022/04/24 02:22:41;;;;;;;6.43;4.20;;;;;;;6.87;99.77;99559.19;6021317;29;20174;-95
2022/04/24 02:25:43;;;;;;;6.88;3.83;;;;;;;6.81;100.00;99564.03;6023036;29;20060;-96
2022/04/24 02:28:45;;;;;;;8.38;4.28;;;;;;;6.73;100.00;99558.66;6027037;29;20037;-96
2022/04/24 02:31:47;;;;;;;5.07;3.45;;;;;;;6.69;100.00;99556.31;6026258;29;20049;-95
2022/04/24 02:34:49;;;;;;;5.35;4.13;;;;;;;6.64;100.00;99550.72;6032896;29;20056;-96
2022/04/24 02:37:53;;;;;;;5.63;3.95;;;;;;;6.61;100.00;99555.31;6002811;29;20093;-96
2022/04/24 02:40:55;;;;;;;6.40;4.13;;;;;;;6.58;100.00;99561.47;6020503;29;20049;-95
2022/04/24 02:43:57;;;;;;;7.15;4.82;;;;;;;6.53;100.00;99555.06;6025135;29;20045;-96
2022/04/24 02:46:58;;;;;;;6.70;4.40;;;;;;;6.50;100.00;99557.88;6024579;29;20056;-96
2022/04/24 02:50:00;;;;;;;4.80;3.88;;;;;;;6.46;100.00;99553.00;6004482;29;20590;-96
2022/04/24 02:53:02;;;;;;;7.18;4.53;;;;;;;6.46;100.00;99559.88;6009839;29;20060;-94
2022/04/24 02:56:04;;;;;;;5.15;4.13;;;;;;;6.45;100.00;99555.66;6021504;29;20053;-96
2022/04/24 02:59:06;;;;;;;5.80;4.30;;;;;;;6.42;100.00;99548.19;6002374;29;20050;-96
2022/04/24 03:02:16;;;;;;;9.70;3.97;;;;;;;6.39;100.00;99551.81;6021963;29;20060;-96
2022/04/24 03:05:21;;;;;;;4.72;4.00;;;;;;;6.34;100.00;99553.94;6024083;29;20840;-96
2022/04/24 03:08:23;;;;;;;6.43;4.15;;;;;;;6.30;100.00;99551.72;6018173;29;20140;-96
2022/04/24 03:11:25;;;;;;;6.45;4.47;;;;;;;6.28;100.00;99549.25;6014641;29;20045;-96
2022/04/24 03:14:27;;;;;;;5.00;4.13;;;;;;;6.24;100.00;99551.25;6000924;29;20065;-96
2022/04/24 03:17:30;;;;;;;6.57;3.95;;;;;;;6.17;100.00;99551.84;5989268;29;20069;-96
2022/04/24 03:20:32;;;;;;;5.43;4.25;;;;;;;6.12;100.00;99547.03;6022706;29;20057;-94
2022/04/24 03:23:34;;;;;;;6.20;4.00;;;;;;;6.07;100.00;99546.56;5996381;29;20041;-96
2022/04/24 03:26:36;;;;;;;5.35;4.10;;;;;;;6.02;100.00;99548.69;6005519;29;20057;-95
2022/04/24 03:29:38;;;;;;;5.50;3.92;;;;;;;5.99;100.00;99554.06;6015082;29;20045;-95
2022/04/24 03:32:40;;;;;;;4.78;3.95;;;;;;;5.94;100.00;99551.84;6020636;29;20053;-95
2022/04/24 03:35:45;;;;;;;5.68;4.07;;;;;;;5.89;100.00;99548.75;6016973;29;20177;-96
2022/04/24 03:38:47;;;;;;;4.82;3.92;;;;;;;5.81;100.00;99556.19;6020541;29;20128;-96
2022/04/24 03:41:49;;;;;;;5.05;3.85;;;;;;;5.76;100.00;99550.59;6033644;29;20058;-95
2022/04/24 03:44:53;;;;;;;4.20;3.50;;;;;;;5.73;100.00;99556.78;6021966;29;20056;-96
2022/04/24 03:47:55;;;;;;;4.55;3.75;;;;;;;5.68;100.00;99555.50;6012859;29;20046;-96
2022/04/24 03:50:56;;;;;;;5.47;3.83;;;;;;;5.59;100.00;99557.00;6016052;29;20061;-96
2022/04/24 03:53:58;;;;;;;6.63;4.15;;;;;;;5.57;100.00;99556.28;6018581;29;20067;-96
2022/04/24 03:57:00;;;;;;;5.90;4.15;;;;;;;5.56;100.00;99552.06;6012994;29;20513;-95
2022/04/24 04:00:03;;;;;;;4.53;3.78;;;;;;;5.58;100.00;99557.91;6026801;29;20053;-96
2022/04/24 04:03:12;;;;;;;6.20;4.13;;;;;;;5.57;100.00;99548.59;6009951;29;20064;-96
2022/04/24 04:06:13;;;;;;;4.30;3.90;;;;;;;5.57;100.00;99549.41;6019976;29;20411;-96
2022/04/24 04:09:15;;;;;;;6.75;4.40;;;;;;;5.59;100.00;99544.16;6024546;29;20044;-96
2022/04/24 04:12:17;;;;;;;6.47;3.88;;;;;;;5.59;100.00;99557.81;6028216;29;20297;-96
2022/04/24 04:15:19;;;;;;;7.20;3.95;;;;;;;5.61;100.00;99555.13;6029476;29;20052;-96
2022/04/24 04:18:21;;;;;;;7.05;3.92;;;;;;;5.57;100.00;99546.03;6013867;29;20061;-96
2022/04/24 04:21:22;;;;;;;8.70;3.78;;;;;;;5.57;100.00;99546.84;6020593;29;20045;-96
2022/04/24 04:24:24;;;;;;;7.45;4.00;;;;;;;5.58;100.00;99548.47;6028063;29;20118;-96
2022/04/24 04:27:26;;;;;;;7.28;4.10;;;;;;;5.61;100.00;99553.38;6028367;29;20049;-96
2022/04/24 04:30:28;;;;;;;4.43;3.80;;;;;;;5.61;100.00;99550.81;6026695;29;21302;-96
2022/04/24 04:33:29;;;;;;;6.75;3.88;;;;;;;5.60;100.00;99562.00;6026478;29;20045;-96
2022/04/24 04:36:32;;;;;;;6.82;4.07;;;;;;;5.62;100.00;99556.78;6029682;29;20094;-96
2022/04/24 04:39:33;;;;;;;6.30;4.15;;;;;;;5.60;100.00;99554.31;6018905;29;20490;-96
2022/04/24 04:42:41;;;;;;;4.53;3.90;;;;;;;5.62;100.00;99556.78;6027930;29;20125;-96
2022/04/24 04:45:43;;;;;;;5.03;3.63;;;;;;;5.63;100.00;99558.41;6029770;29;20041;-96
2022/04/24 04:48:44;;;;;;;4.05;3.63;;;;;;;5.66;100.00;99563.28;6027690;29;20416;-96
2022/04/24 04:51:47;;;;;;;4.90;3.45;;;;;;;5.71;100.00;99558.63;6030513;29;20110;-96
2022/04/24 04:54:49;;;;;;;7.25;4.07;;;;;;;5.75;100.00;99566.94;6033440;29;20045;-96
2022/04/24 04:57:51;;;;;;;6.60;3.97;;;;;;;5.83;100.00;99565.44;6029218;29;20041;-96
2022/04/24 05:00:53;;;;;;;5.13;3.58;;;;;;;5.89;100.00;99569.31;6029130;29;20049;-96
2022/04/24 05:03:55;;;;;;;8.30;4.20;;;;;;;5.94;100.00;99567.25;6032286;29;20128;-96
2022/04/24 05:06:57;;;;;;;9.57;3.90;;;;;;;5.98;100.00;99565.25;6034222;29;20152;-96
2022/04/24 05:09:59;;;;;;;6.55;3.58;;;;;;;6.02;100.00;99564.91;6031141;29;20045;-96
2022/04/24 05:13:00;;;;;;;5.63;3.40;;;;;;;6.07;100.00;99572.28;6015489;29;20523;-96
2022/04/24 05:16:02;;;;;;;4.03;3.38;;;;;;;6.13;100.00;99578.69;6027356;29;20083;-96
2022/04/24 05:19:07;;;;;;;4.15;2.97;;;;;;;6.16;100.00;99583.59;6012469;29;20045;-95
2022/04/24 05:22:09;;;;;;;5.95;4.05;;;;;;;6.19;100.00;99579.06;6028820;29;20148;-96
2022/04/24 05:25:12;;;;;;;5.47;3.17;;;;;;;6.22;100.00;99583.94;6031344;29;20090;-95
2022/04/24 05:28:14;;;;;;;6.82;4.32;;;;;;;6.25;100.00;99588.84;6027694;29;20053;-96
2022/04/24 05:31:16;;;;;;;3.70;3.30;;;;;;;6.31;100.00;99579.03;6022953;29;20128;-95
2022/04/24 05:34:18;;;;;;;6.88;3.38;;;;;;;6.34;100.00;99581.41;6011149;29;20563;-96
2022/04/24 05:37:20;;;;;;;5.05;3.63;;;;;;;6.37;100.00;99583.72;6029463;29;20052;-95
2022/04/24 05:40:24;;;;;;;5.88;3.97;;;;;;;6.45;100.00;99578.78;6030724;29;20089;-96
2022/04/24 05:43:26;;;;;;;6.35;3.85;;;;;;;6.47;100.00;99572.59;6030953;29;20119;-95
2022/04/24 05:46:27;;;;;;;5.15;3.70;;;;;;;6.51;100.00;99586.06;6035760;29;20538;-96
2022/04/24 05:49:29;;;;;;;5.85;3.50;;;;;;;6.59;100.00;99588.03;6020986;29;20050;-96
2022/04/24 05:52:31;;;;;;;6.13;3.80;;;;;;;6.65;100.00;99588.34;6025824;29;20057;-96
2022/04/24 05:55:33;;;;;;;6.28;3.88;;;;;;;6.73;100.00;99586.94;6033959;29;20078;-96
2022/04/24 05:58:35;;;;;;;5.50;3.33;;;;;;;6.81;100.00;99584.59;6022143;29;20045;-96
2022/04/24 06:01:37;;;;;;;5.13;3.38;;;;;;;6.88;100.00;99584.00;6020763;29;20124;-95
2022/04/24 06:04:39;;;;;;;6.00;3.72;;;;;;;6.93;100.00;99580.22;6032266;29;20052;-95
2022/04/24 06:07:41;;;;;;;6.07;3.58;;;;;;;7.01;100.00;99581.28;6032871;29;20135;-96
2022/04/24 06:10:43;;;;;;;5.53;3.47;;;;;;;7.06;100.00;99594.59;6018184;29;20073;-96
2022/04/24 06:13:48;;;;;;;5.32;3.70;;;;;;;7.12;100.00;99588.13;6020639;29;20054;-95
2022/04/24 06:16:49;;;;;;;6.85;4.07;;;;;;;7.23;100.00;99590.69;6033448;29;20063;-96
2022/04/24 06:19:51;;;;;;;6.07;3.25;;;;;;;7.40;100.00;99581.56;6030330;29;20065;-96
2022/04/24 06:22:56;;;;;;;6.07;3.70;;;;;;;7.65;100.00;99574.44;6033904;29;20049;-96
2022/04/24 06:25:58;;;;;;;5.32;3.35;;;;;;;7.88;100.00;99573.38;6003341;29;20049;-96
2022/04/24 06:29:01;;;;;;;6.97;3.08;;;;;;;8.04;100.00;99567.72;6019104;29;20105;-95
2022/04/24 06:32:04;;;;;;;7.15;3.70;;;;;;;8.40;98.20;99579.31;6031226;29;20048;-96
2022/04/24 06:35:09;;;;;;;4.47;3.55;;;;;;;8.76;94.02;99573.72;6024671;29;20046;-95
2022/04/24 06:38:11;;;;;;;5.40;3.25;;;;;;;8.96;94.28;99565.03;6019226;29;20049;-96
2022/04/24 06:41:13;;;;;;;4.05;3.03;;;;;;;9.25;92.79;99569.41;6032488;29;20494;-95
2022/04/24 06:44:14;;;;;;;5.50;3.42;;;;;;;9.62;91.59;99572.09;6021793;29;20385;-95
2022/04/24 06:47:16;;;;;;;5.05;3.10;;;;;;;9.88;89.95;99572.28;6015347;29;20041;-95
2022/04/24 06:50:22;;;;;;;3.72;2.78;;;;;;;9.98;87.62;99569.69;6035273;29;20090;-96
2022/04/24 06:53:25;;;;;;;4.40;2.63;;;;;;;10.02;88.44;99572.81;6034151;29;20153;-95
2022/04/24 06:56:27;;;;;;;5.05;2.95;;;;;;;10.02;85.79;99570.22;6035312;29;20065;-96
2022/04/24 06:59:29;;;;;;;4.20;3.10;;;;;;;10.06;85.36;99574.16;6017587;29;20105;-91
2022/04/24 07:02:30;;;;;;;4.10;2.88;;;;;;;10.15;84.25;99555.22;5998011;29;20444;-92
2022/04/24 07:05:32;;;;;;;4.55;2.80;;;;;;;10.40;83.61;99566.69;6010810;29;20050;-92
2022/04/24 07:08:35;;;;;;;4.97;3.15;;;;;;;10.68;81.56;99559.75;5998145;29;20484;-91
2022/04/24 07:11:37;;;;;;;6.05;3.20;;;;;;;10.81;79.59;99566.31;6020813;29;20763;-91
2022/04/24 07:14:39;;;;;;;4.30;3.00;;;;;;;10.88;78.43;99560.44;6009955;29;20081;-91
2022/04/24 07:17:42;;;;;;;4.55;2.88;;;;;;;10.99;80.51;99560.22;6003364;29;20136;-91
2022/04/24 07:20:44;;;;;;;5.47;3.50;;;;;;;11.28;80.13;99553.16;6012436;29;20434;-91
2022/04/24 07:23:46;;;;;;;4.78;3.20;;;;;;;11.59;75.91;99550.97;6004792;29;20054;-92
2022/04/24 07:26:49;;;;;;;7.22;3.25;;;;;;;11.74;76.12;99548.63;6010969;29;20053;-91
2022/04/24 07:29:50;;;;;;;8.25;3.40;;;;;;;12.00;74.90;99551.22;6022068;29;20053;-91
2022/04/24 07:32:54;;;;;;;7.15;3.22;;;;;;;12.14;74.04;99545.47;5994423;29;20053;-91
2022/04/24 07:35:56;;;;;;;3.45;3.03;;;;;;;12.17;71.13;99539.16;6016987;29;20132;-91
2022/04/24 07:38:58;;;;;;;4.55;3.40;;;;;;;12.10;73.10;99533.78;6003244;29;20054;-92
2022/04/24 07:42:00;;;;;;;7.55;4.55;;;;;;;11.96;73.21;99532.59;5991628;29;20223;-92
2022/04/24 07:45:02;;;;;;;4.18;3.60;;;;;;;11.81;71.00;99534.91;6003107;29;20049;-92
2022/04/24 07:48:05;;;;;;;4.03;2.88;;;;;;;11.60;72.05;99534.44;6021979;29;20054;-93
2022/04/24 07:51:07;;;;;;;4.78;3.38;;;;;;;11.49;74.26;99532.13;6017557;29;20049;-92
2022/04/24 07:54:09;;;;;;;5.25;3.45;;;;;;;11.42;73.71;99537.06;6018088;29;20061;-91
2022/04/24 07:57:10;;;;;;;4.97;3.53;;;;;;;11.41;71.23;99530.28;6025180;29;20049;-91
2022/04/24 08:00:14;;;;;;;4.10;3.17;;;;;;;11.31;73.24;99524.38;6017668;29;20064;-91
2022/04/24 08:03:16;;;;;;;4.00;3.45;;;;;;;11.19;74.15;99534.97;6010490;29;20717;-91
2022/04/24 08:06:18;;;;;;;4.80;3.35;;;;;;;11.12;73.83;99530.53;6018566;29;20187;-92
2022/04/24 08:09:20;;;;;;;6.63;3.33;;;;;;;11.32;71.83;99528.59;6016319;29;20052;-95
2022/04/24 08:12:22;;;;;;;6.35;3.28;;;;;;;11.47;71.98;99521.88;6018487;29;20051;-93
2022/04/24 08:15:25;;;;;;;6.03;3.60;;;;;;;11.71;70.43;99518.66;6016518;29;20080;-92
2022/04/24 08:18:27;;;;;;;4.43;3.42;;;;;;;11.89;68.14;99520.41;5988365;29;20042;-93
2022/04/24 08:21:28;;;;;;;4.90;3.67;;;;;;;11.92;69.06;99522.66;6001245;29;20485;-92
2022/04/24 08:24:30;;;;;;;8.02;4.47;;;;;;;11.78;67.44;99526.63;6013420;29;20396;-92
2022/04/24 08:27:32;;;;;;;5.30;3.33;;;;;;;11.77;68.43;99515.44;6013108;29;20046;-92
2022/04/24 08:30:48;;;;;;;5.30;3.53;;;;;;;11.70;69.38;99514.44;6010490;29;20528;-93
2022/04/24 08:33:50;;;;;;;4.93;3.40;;;;;;;11.70;68.16;99519.63;6012188;29;20570;-92
2022/04/24 08:36:52;;;;;;;10.75;5.63;;;;;;;11.63;68.32;99514.22;6009039;29;20069;-92
2022/04/24 08:39:54;;;;;;;6.82;3.72;;;;;;;11.55;69.28;99521.13;6005665;29;20491;-92
2022/04/24 08:42:57;;;;;;;6.15;3.30;;;;;;;11.50;72.50;99519.03;6012896;29;20052;-95
2022/04/24 08:45:59;;;;;;;4.45;3.22;;;;;;;11.61;68.02;99504.97;6009091;29;20050;-92
2022/04/24 08:49:02;;;;;;;6.05;3.58;;;;;;;11.56;69.39;99518.41;6011806;29;20038;-92
2022/04/24 08:52:05;;;;;;;5.00;3.70;;;;;;;11.57;70.08;99514.81;6009390;29;20045;-91
2022/04/24 08:55:07;;;;;;;4.25;3.15;;;;;;;11.73;70.48;99511.53;6007417;29;20038;-92
2022/04/24 08:58:09;;;;;;;5.25;4.00;;;;;;;11.89;67.45;99508.22;6011729;29;20084;-93
2022/04/24 09:01:11;;;;;;;5.63;3.70;;;;;;;11.96;66.65;99508.44;6007762;29;20166;-87
2022/04/24 09:04:13;;;;;;;5.85;3.53;;;;;;;11.88;68.32;99516.19;5991353;29;20061;-87
2022/04/24 09:07:19;;;;;;;7.68;4.22;;;;;;;12.03;66.81;99506.84;5992441;29;20041;-88
2022/04/24 09:10:20;;;;;;;6.57;3.65;;;;;;;11.97;68.10;99516.03;6005602;29;20053;-86
2022/04/24 09:16:56;;;;;;;6.70;4.40;;;;;;;12.00;68.54;99504.53;6011558;29;20183;-86
2022/04/24 09:19:58;;;;;;;7.47;4.50;;;;;;;12.10;67.21;99502.66;6005890;29;20488;-87
2022/04/24 09:23:03;;;;;;;6.22;4.22;;;;;;;12.24;66.31;99504.66;6003884;29;20097;-86
2022/04/24 09:26:05;;;;;;;7.70;4.70;;;;;;;12.34;65.70;99506.31;6011173;29;20048;-88
2022/04/24 09:29:12;;;;;;;8.13;4.60;;;;;;;12.49;64.19;99507.31;5993860;29;20048;-87
2022/04/24 09:32:14;;;;;;;5.90;3.80;;;;;;;12.36;66.46;99512.97;6004853;29;20587;-88
2022/04/24 09:35:28;;;;;;;6.20;4.47;;;;;;;12.42;66.73;99501.13;6005477;29;20056;-87
2022/04/24 09:38:30;;;;;;;7.10;4.50;;;;;;;12.37;68.11;99509.41;6006651;29;20559;-87
2022/04/24 09:41:32;;;;;;;7.45;4.18;;;;;;;12.64;67.23;99504.91;6006653;29;21086;-87
2022/04/24 09:44:53;;;;;;;7.50;4.93;;;;;;;13.13;65.79;99518.75;6007717;29;20086;-88
2022/04/24 09:48:19;;;;;;;7.47;4.88;;;;;;;13.86;64.63;99513.63;6002590;29;20048;-87
2022/04/24 09:51:21;;;;;;;8.02;4.65;;;;;;;14.58;60.89;99518.72;6002558;29;20427;-86
2022/04/24 09:54:23;;;;;;;7.45;4.47;;;;;;;15.28;55.75;99517.75;6004572;29;20045;-87
2022/04/24 09:57:29;;;;;;;5.80;4.13;;;;;;;15.68;53.04;99521.75;5999036;29;21168;-87
2022/04/24 10:00:34;;;;;;;8.73;5.18;;;;;;;16.05;52.38;99521.84;6009398;29;20050;-88
2022/04/24 10:03:37;;;;;;;7.05;4.80;;;;;;;16.37;53.68;99512.78;6003414;29;20129;-87
2022/04/24 10:06:40;;;;;;;7.43;4.45;;;;;;;16.51;50.95;99519.78;6002688;29;20049;-87
2022/04/24 10:09:44;;;;;;;6.32;3.90;;;;;;;16.67;50.92;99520.56;6006048;29;20101;-87
2022/04/24 10:12:48;;;;;;;6.88;4.50;;;;;;;16.80;50.81;99518.13;5988317;29;20054;-88
2022/04/24 10:15:59;;;;;;;8.27;4.90;;;;;;;16.87;49.86;99515.56;6007340;29;20559;-88
2022/04/24 10:19:38;;;;;;;7.00;5.05;;;;;;;16.78;49.46;99520.91;5993182;29;20065;-87
2022/04/24 10:22:44;;;;;;;9.82;4.88;;;;;;;16.92;49.03;99521.84;6005671;29;20503;-88
2022/04/24 10:25:46;;;;;;;6.15;4.88;;;;;;;17.20;48.89;99523.69;6006929;29;20492;-88
2022/04/24 10:28:49;;;;;;;5.57;4.75;;;;;;;17.47;46.90;99522.09;6007081;29;20408;-88
2022/04/24 10:31:52;;;;;;;10.40;4.65;;;;;;;17.58;46.92;99523.38;6003541;29;20087;-88
2022/04/24 10:34:54;;;;;;;8.63;5.18;;;;;;;17.63;47.61;99519.16;6006697;29;20336;-89
2022/04/24 10:38:07;;;;;;;7.82;5.20;;;;;;;17.83;48.44;99527.16;6001958;29;20048;-87
2022/04/24 10:41:15;;;;;;;8.38;5.43;;;;;;;17.94;46.89;99519.81;6010076;29;20125;-88
2022/04/24 10:44:18;;;;;;;7.15;4.97;;;;;;;17.84;47.14;99520.16;6004555;29;20060;-89
2022/04/24 10:47:20;;;;;;;7.50;5.25;;;;;;;17.79;47.26;99520.69;6003675;29;20101;-89
2022/04/24 10:50:22;;;;;;;7.75;5.32;;;;;;;17.78;49.04;99507.78;6008954;29;20571;-88
2022/04/24 10:53:25;;;;;;;5.35;4.55;;;;;;;17.70;49.30;99511.38;5988716;29;20143;-89
2022/04/24 10:56:29;;;;;;;5.65;5.05;;;;;;;17.95;48.73;99509.13;6012269;29;20059;-88
2022/04/24 10:59:49;;;;;;;8.52;4.90;;;;;;;17.71;45.10;99505.13;6010316;29;20040;-88
2022/04/24 11:02:52;;;;;;;8.13;5.38;;;;;;;17.38;46.95;99505.72;5997566;29;20356;-89
2022/04/24 11:05:59;;;;;;;7.32;4.93;;;;;;;16.82;51.09;99510.91;6011157;29;20044;-88
2022/04/24 11:09:13;;;;;;;6.97;5.30;;;;;;;16.60;50.70;99493.56;6008312;29;20426;-88
2022/04/24 11:12:15;;;;;;;10.30;6.97;;;;;;;16.42;49.93;99497.41;6011000;29;20253;-89
2022/04/24 11:15:17;;;;;;;9.30;5.57;;;;;;;16.54;50.94;99495.91;5990449;29;20734;-88
2022/04/24 11:18:24;;;;;;;8.18;4.90;;;;;;;16.67;51.62;99494.44;6008826;29;20049;-88
2022/04/24 11:21:27;;;;;;;6.72;5.05;;;;;;;16.67;49.70;99489.19;5991947;29;20463;-89
2022/04/24 11:24:32;;;;;;;7.10;5.80;;;;;;;16.64;50.53;99474.69;6014441;29;20054;-89
2022/04/24 11:27:34;;;;;;;7.40;4.80;;;;;;;16.71;50.06;99480.81;5991666;29;20550;-88
2022/04/24 11:30:38;;;;;;;6.43;4.85;;;;;;;16.82;51.62;99476.94;6004833;29;20456;-89
2022/04/24 11:34:01;;;;;;;7.25;5.00;;;;;;;17.06;50.67;99483.56;6010802;29;20050;-90
2022/04/24 11:37:04;;;;;;;7.03;5.32;;;;;;;17.11;47.46;99483.78;6008024;29;20054;-88
2022/04/24 11:40:06;;;;;;;8.68;5.28;;;;;;;16.97;47.52;99485.50;6011030;29;20069;-87
2022/04/24 11:43:29;;;;;;;8.13;5.68;;;;;;;16.92;48.82;99472.19;6005609;29;20045;-88
2022/04/24 11:53:35;;;;;;;10.25;7.10;;;;;;;17.67;45.39;99477.75;6014856;29;20049;-88
2022/04/24 11:56:38;;;;;;;7.65;5.80;;;;;;;17.83;46.10;99484.47;6006851;29;20057;-88
2022/04/24 11:59:40;;;;;;;7.60;6.05;;;;;;;18.08;44.08;99482.97;6015597;29;20049;-89
2022/04/24 12:02:43;;;;;;;6.30;5.40;;;;;;;18.52;44.17;99488.75;6015852;29;20064;-89
2022/04/24 12:05:45;;;;;;;7.28;5.50;;;;;;;18.78;42.33;99484.59;6004031;29;20038;-88
2022/04/24 12:08:55;;;;;;;6.95;5.15;;;;;;;19.06;44.73;99487.03;5991985;29;20439;-88
2022/04/24 12:12:16;;;;;;;7.38;5.40;;;;;;;19.56;45.32;99469.00;6002935;29;20479;-89
2022/04/24 12:15:20;;;;;;;7.55;5.53;;;;;;;19.90;43.10;99474.97;6000234;29;20121;-89
2022/04/24 12:18:23;;;;;;;6.22;4.75;;;;;;;20.14;43.13;99473.47;5999980;29;20037;-88
2022/04/24 12:21:31;;;;;;;8.27;5.55;;;;;;;20.06;40.00;99485.03;6004317;29;20790;-90
2022/04/24 12:24:47;;;;;;;6.65;5.40;;;;;;;19.81;42.65;99471.00;6007433;29;20068;-87
2022/04/24 12:27:57;;;;;;;6.82;5.03;;;;;;;19.91;42.94;99471.34;6008106;29;20065;-89
2022/04/24 12:31:01;;;;;;;6.97;5.03;;;;;;;20.32;42.61;99470.16;5992001;29;20057;-89
2022/04/24 12:34:04;;;;;;;7.07;4.60;;;;;;;20.44;40.17;99469.25;6009172;29;20049;-90
2022/04/24 12:37:06;;;;;;;7.30;5.15;;;;;;;20.39;40.94;99469.09;6014870;29;20041;-90
2022/04/24 12:40:09;;;;;;;8.52;5.13;;;;;;;20.59;41.56;99460.31;6007145;29;20042;-88
2022/04/24 12:43:10;;;;;;;5.82;4.97;;;;;;;20.63;38.63;99472.03;6010364;29;20121;-90
2022/04/24 12:46:13;;;;;;;8.73;5.20;;;;;;;20.76;40.13;99468.50;6003258;29;20052;-90
2022/04/24 12:49:27;;;;;;;6.45;5.00;;;;;;;21.27;39.41;99460.38;6007622;29;20449;-88
2022/04/24 12:52:28;;;;;;;5.93;4.85;;;;;;;21.80;37.39;99458.22;6006055;29;20198;-89
2022/04/24 12:55:30;;;;;;;7.40;5.38;;;;;;;22.17;37.88;99453.69;6006948;29;20045;-89
2022/04/24 12:58:32;;;;;;;5.75;4.82;;;;;;;22.50;35.78;99461.16;6007990;29;20125;-90
2022/04/24 13:01:34;;;;;;;5.93;5.32;;;;;;;22.44;37.93;99458.63;6009878;29;20132;-89
2022/04/24 13:04:37;;;;;;;4.85;4.45;;;;;;;22.42;36.22;99460.69;6007380;29;20049;-90
2022/04/24 13:07:39;;;;;;;8.10;5.10;;;;;;;21.81;36.39;99450.06;6012948;29;20381;-90
2022/04/24 13:10:41;;;;;;;5.65;4.70;;;;;;;20.94;39.39;99442.22;6015080;29;20045;-89
2022/04/24 13:13:43;;;;;;;5.22;4.60;;;;;;;20.76;37.98;99448.25;6010346;29;20464;-90
2022/04/24 13:20:06;;;;;;;5.93;4.80;;;;;;;21.42;39.47;99438.19;6012591;29;20056;-89
2022/04/24 13:23:12;;;;;;;5.13;4.63;;;;;;;20.95;36.89;99441.22;6003016;29;20050;-89
2022/04/24 13:26:15;;;;;;;6.32;4.55;;;;;;;20.14;39.45;99439.31;6002207;29;20121;-90
2022/04/24 13:29:17;;;;;;;12.80;9.32;;;;;;;19.68;40.12;99432.47;6010909;29;20848;-90
2022/04/24 13:32:25;;;;;;;7.88;5.72;;;;;;;19.41;39.37;99440.38;5988710;29;20214;-90
2022/04/24 13:35:27;;;;;;;6.68;5.00;;;;;;;19.17;40.40;99433.94;6009936;29;20913;-90
2022/04/24 13:38:32;;;;;;;7.18;5.43;;;;;;;19.13;40.68;99433.56;5997230;29;20083;-90
2022/04/24 13:41:34;;;;;;;5.47;4.85;;;;;;;19.16;42.47;99421.84;6012780;29;20057;-89
2022/04/24 13:44:36;;;;;;;5.97;4.65;;;;;;;19.31;40.84;99432.94;6006334;29;20053;-90
2022/04/24 13:47:38;;;;;;;5.20;4.15;;;;;;;19.43;41.69;99438.34;6006570;29;20564;-90
2022/04/24 13:50:40;;;;;;;7.57;4.90;;;;;;;19.44;42.40;99436.53;6013740;29;20046;-89
2022/04/24 13:53:45;;;;;;;5.70;4.80;;;;;;;19.54;41.70;99429.84;6007671;29;20496;-90
2022/04/24 13:56:51;;;;;;;5.53;4.93;;;;;;;19.58;40.58;99430.25;6008418;29;20049;-91
2022/04/24 13:59:52;;;;;;;6.25;4.78;;;;;;;19.47;41.80;99433.50;6007817;29;20089;-90
2022/04/24 14:02:56;;;;;;;5.82;4.70;;;;;;;19.41;43.39;99436.94;6002508;29;20610;-91
2022/04/24 14:05:59;;;;;;;11.07;5.13;;;;;;;19.55;41.85;99443.75;6015145;29;20640;-89
2022/04/24 14:09:01;;;;;;;7.00;5.70;;;;;;;19.49;42.23;99434.09;5978047;29;20193;-89
2022/04/24 14:12:05;;;;;;;10.15;6.35;;;;;;;19.45;41.73;99446.00;6007802;29;20087;-91
2022/04/24 14:15:07;;;;;;;6.05;4.75;;;;;;;19.31;40.85;99435.56;6006849;29;20084;-89
2022/04/24 14:18:08;;;;;;;9.45;6.57;;;;;;;19.05;41.85;99435.56;6008313;29;20520;-88
2022/04/24 14:21:10;;;;;;;6.40;5.18;;;;;;;19.00;42.19;99438.81;6005542;29;20471;-89
2022/04/24 14:24:12;;;;;;;7.30;5.13;;;;;;;19.07;42.10;99434.38;6002940;29;20050;-91
2022/04/24 14:27:17;;;;;;;6.75;5.15;;;;;;;18.94;42.86;99442.25;6013292;29;20448;-91
2022/04/24 14:30:20;;;;;;;5.95;4.90;;;;;;;18.83;42.89;99438.44;5998754;29;20132;-90
2022/04/24 14:33:22;;;;;;;8.65;5.13;;;;;;;18.67;42.12;99436.97;5996888;29;21295;-91
2022/04/24 14:36:24;;;;;;;10.18;5.20;;;;;;;18.76;42.82;99437.63;6012959;29;20042;-93
2022/04/24 14:39:27;;;;;;;7.25;5.20;;;;;;;18.71;43.79;99438.19;6016561;29;20080;-93